Time;durP1;ratioP1;P1;durP2;ratioP2;P2;SDS_P1;SDS_P2;PMS_P1;PMS_P2;Temp;Humidity;BMP_temperature;BMP_pressure;BME280_temperature;BME280_humidity;BME280_pressure;Samples;Min_cycle;Max_cycle;Signal;HPM_P1;HPM_P2
2022/12/09 00:02:09;;;;;;;23.08;20.08;;;;;;;2.81;100.00;100565.66;5176594;28;20034;-70
2022/12/09 00:04:41;;;;;;;23.38;20.67;;;;;;;2.79;100.00;100568.31;5177052;28;20132;-70
2022/12/09 00:07:12;;;;;;;23.55;20.65;;;;;;;2.83;100.00;100569.81;5174146;28;20026;-70
2022/12/09 00:09:43;;;;;;;24.45;20.80;;;;;;;2.83;100.00;100569.81;5154068;28;20031;-71
2022/12/09 00:12:14;;;;;;;26.17;21.23;;;;;;;2.86;100.00;100568.81;5171934;28;20117;-70
2022/12/09 00:14:46;;;;;;;25.17;20.83;;;;;;;2.89;100.00;100569.47;5175353;28;20023;-72
2022/12/09 00:17:17;;;;;;;24.88;21.23;;;;;;;2.91;100.00;100567.59;5158301;28;20476;-70
2022/12/09 00:19:48;;;;;;;26.45;21.42;;;;;;;2.90;100.00;100567.72;5173017;28;20444;-70
2022/12/09 00:22:19;;;;;;;27.92;21.60;;;;;;;2.98;100.00;100568.09;5158813;28;20041;-71
2022/12/09 00:24:51;;;;;;;25.60;22.00;;;;;;;2.93;100.00;100552.00;5173600;28;20019;-71
2022/12/09 00:27:22;;;;;;;28.60;23.52;;;;;;;2.98;100.00;100568.09;5173865;28;20026;-70
2022/12/09 00:29:54;;;;;;;25.85;22.10;;;;;;;2.93;100.00;100562.38;5175055;28;20396;-70
2022/12/09 00:32:25;;;;;;;26.58;23.40;;;;;;;2.97;100.00;100569.03;5176031;28;20496;-71
2022/12/09 00:34:56;;;;;;;27.35;22.95;;;;;;;2.94;100.00;100564.03;5173243;28;20228;-70
2022/12/09 00:37:27;;;;;;;24.85;22.20;;;;;;;2.95;100.00;100560.50;5175578;28;20102;-72
2022/12/09 00:39:59;;;;;;;25.50;22.35;;;;;;;2.96;100.00;100564.78;5176094;28;20031;-70
2022/12/09 00:42:30;;;;;;;30.00;23.65;;;;;;;3.00;100.00;100565.44;5173844;28;20039;-71
2022/12/09 00:45:01;;;;;;;30.38;25.17;;;;;;;2.99;100.00;100568.94;5176298;28;20018;-70
2022/12/09 00:47:33;;;;;;;29.67;23.67;;;;;;;2.99;100.00;100568.94;5175569;28;20027;-70
2022/12/09 00:50:05;;;;;;;27.23;24.00;;;;;;;3.00;100.00;100558.50;5175763;28;20524;-70
2022/12/09 00:52:36;;;;;;;32.17;24.45;;;;;;;2.95;100.00;100573.44;5173903;28;20548;-71
2022/12/09 00:55:08;;;;;;;32.17;24.60;;;;;;;2.98;100.00;100569.84;5175107;28;20114;-70
2022/12/09 00:57:39;;;;;;;31.15;24.58;;;;;;;2.98;100.00;100568.09;5175537;28;20495;-70
2022/12/09 01:00:11;;;;;;;30.85;24.08;;;;;;;2.98;100.00;100562.91;5172060;28;20074;-71
2022/12/09 01:02:42;;;;;;;32.38;24.63;;;;;;;2.97;100.00;100560.44;5173099;28;20046;-70
2022/12/09 01:05:14;;;;;;;28.60;25.05;;;;;;;2.98;100.00;100560.34;5175245;28;20034;-70
2022/12/09 01:07:45;;;;;;;30.73;25.35;;;;;;;3.04;100.00;100554.81;5175870;28;20033;-70
2022/12/09 01:10:16;;;;;;;30.65;25.88;;;;;;;3.06;100.00;100565.06;5171539;28;20015;-71
2022/12/09 01:12:48;;;;;;;36.03;25.25;;;;;;;3.05;100.00;100556.47;5174819;28;20135;-70
2022/12/09 01:15:19;;;;;;;30.30;25.17;;;;;;;3.06;100.00;100557.31;5175780;28;20468;-72
2022/12/09 01:17:50;;;;;;;31.73;26.00;;;;;;;3.06;100.00;100571.06;5175459;28;21040;-70
2022/12/09 01:20:22;;;;;;;34.42;26.27;;;;;;;3.05;100.00;100568.59;5172950;28;20035;-72
2022/12/09 01:22:53;;;;;;;32.80;27.23;;;;;;;3.02;100.00;100569.59;5174970;28;20026;-70
2022/12/09 01:25:24;;;;;;;34.05;25.38;;;;;;;3.04;100.00;100566.94;5174777;28;20106;-70
2022/12/09 01:27:56;;;;;;;34.63;26.02;;;;;;;3.04;100.00;100572.09;5173640;28;20033;-70
2022/12/09 01:30:27;;;;;;;35.10;28.50;;;;;;;3.03;100.00;100573.88;5173954;28;20121;-70
2022/12/09 01:32:58;;;;;;;32.45;27.05;;;;;;;3.07;100.00;100574.50;5175044;28;20035;-71
2022/12/09 01:35:29;;;;;;;31.55;26.25;;;;;;;3.07;100.00;100575.34;5175208;28;20512;-70
2022/12/09 01:38:00;;;;;;;32.97;26.52;;;;;;;3.08;100.00;100579.59;5172305;28;20473;-71
2022/12/09 01:40:32;;;;;;;33.28;27.45;;;;;;;3.10;100.00;100574.31;5173486;28;20022;-71
2022/12/09 01:43:03;;;;;;;34.13;27.23;;;;;;;3.12;100.00;100568.13;5175151;28;20033;-70
2022/12/09 01:45:39;;;;;;;38.38;28.10;;;;;;;3.25;100.00;100576.00;5175149;28;20037;-71
2022/12/09 01:48:13;;;;;;;33.55;28.52;;;;;;;3.19;100.00;100575.56;5156439;28;20027;-71
2022/12/09 01:51:01;;;;;;;37.40;27.90;;;;;;;3.33;100.00;100568.66;5173952;28;20030;-70
2022/12/09 01:53:36;;;;;;;39.08;29.00;;;;;;;3.16;100.00;100574.81;5174520;28;20058;-71
2022/12/09 01:56:15;;;;;;;33.35;26.95;;;;;;;3.17;100.00;100565.28;5174311;28;20043;-71
2022/12/09 01:58:47;;;;;;;34.35;27.27;;;;;;;3.13;100.00;100572.38;5172435;28;20029;-70
2022/12/09 02:01:19;;;;;;;42.28;28.73;;;;;;;3.14;100.00;100568.91;5174228;28;20387;-71
2022/12/09 02:03:50;;;;;;;36.53;27.55;;;;;;;3.17;100.00;100566.09;5174569;28;20058;-71
2022/12/09 02:06:22;;;;;;;37.60;29.63;;;;;;;3.16;100.00;100571.38;5154225;28;20536;-71
2022/12/09 02:08:54;;;;;;;42.90;29.20;;;;;;;3.17;100.00;100571.28;5173532;28;20031;-71
2022/12/09 02:11:47;;;;;;;38.40;31.10;;;;;;;3.36;100.00;100577.97;5174382;28;20156;-71
2022/12/09 02:15:05;;;;;;;41.38;30.65;;;;;;;3.53;100.00;100575.22;5174219;28;20023;-71
2022/12/09 02:17:41;;;;;;;44.70;28.80;;;;;;;3.27;100.00;100570.75;5127103;28;20077;-71
2022/12/09 02:20:28;;;;;;;37.63;29.33;;;;;;;3.37;100.00;100577.03;5173000;28;20041;-71
2022/12/09 02:23:16;;;;;;;44.65;31.67;;;;;;;3.36;100.00;100570.19;5173412;28;20444;-72
2022/12/09 02:25:55;;;;;;;37.42;29.40;;;;;;;3.25;100.00;100576.00;5171696;28;20122;-68
2022/12/09 02:29:09;;;;;;;42.40;28.67;;;;;;;3.45;100.00;100572.28;5174071;28;20065;-68
2022/12/09 02:32:14;;;;;;;44.53;29.50;;;;;;;3.52;100.00;100570.94;5173218;28;20023;-68
2022/12/09 02:34:54;;;;;;;47.40;30.30;;;;;;;3.31;100.00;100562.72;5171693;28;20101;-68
2022/12/09 02:37:39;;;;;;;44.42;29.83;;;;;;;3.36;100.00;100565.84;5173333;28;20023;-68
2022/12/09 02:40:17;;;;;;;51.92;31.40;;;;;;;3.28;100.00;100562.06;5173981;28;20025;-68
2022/12/09 02:42:48;;;;;;;39.40;29.02;;;;;;;3.21;100.00;100566.75;5172330;28;20023;-68
2022/12/09 02:45:21;;;;;;;43.67;30.60;;;;;;;3.26;100.00;100571.66;5164615;28;20102;-68
2022/12/09 02:47:53;;;;;;;41.15;30.92;;;;;;;3.25;100.00;100565.66;5171856;28;20030;-68
2022/12/09 02:50:30;;;;;;;44.40;32.33;;;;;;;3.27;100.00;100568.16;5173071;28;20034;-68
2022/12/09 02:53:07;;;;;;;49.58;31.95;;;;;;;3.33;100.00;100562.63;5173661;28;20384;-68
2022/12/09 02:55:42;;;;;;;45.25;30.67;;;;;;;3.34;100.00;100561.72;5172234;28;20704;-68
2022/12/09 02:58:13;;;;;;;41.25;30.80;;;;;;;3.32;100.00;100560.97;5173833;28;20014;-68
2022/12/09 03:00:44;;;;;;;51.60;32.33;;;;;;;3.31;100.00;100560.13;5172859;28;20057;-68
2022/12/09 03:03:17;;;;;;;47.80;33.22;;;;;;;3.28;100.00;100555.13;5173639;28;20034;-68
2022/12/09 03:06:07;;;;;;;48.28;31.85;;;;;;;3.45;100.00;100561.91;5171459;28;20050;-68
2022/12/09 03:08:42;;;;;;;50.22;32.47;;;;;;;3.31;100.00;100559.31;5173866;28;20034;-68
2022/12/09 03:11:20;;;;;;;52.50;32.85;;;;;;;3.42;100.00;100562.91;5173857;28;20128;-68
2022/12/09 03:14:02;;;;;;;50.67;33.53;;;;;;;3.44;100.00;100560.22;5172669;28;20030;-68
2022/12/09 03:16:36;;;;;;;50.50;31.27;;;;;;;3.35;100.00;100555.59;5172356;28;20031;-68
2022/12/09 03:19:16;;;;;;;52.17;33.60;;;;;;;3.40;100.00;100550.97;5171077;28;20041;-68
2022/12/09 03:21:51;;;;;;;52.67;34.10;;;;;;;3.40;100.00;100548.38;5173227;28;20026;-68
2022/12/09 03:24:36;;;;;;;47.75;32.50;;;;;;;3.46;100.00;100542.84;5173875;28;20114;-68
2022/12/09 03:27:13;;;;;;;48.78;33.33;;;;;;;3.37;100.00;100538.19;5172773;28;20488;-68
2022/12/09 03:29:47;;;;;;;57.47;34.70;;;;;;;3.42;100.00;100536.19;5172461;28;20023;-68
2022/12/09 03:32:23;;;;;;;61.22;35.20;;;;;;;3.36;100.00;100533.94;5173438;28;20070;-68
2022/12/09 03:35:01;;;;;;;56.35;32.78;;;;;;;3.44;100.00;100531.72;5175409;28;20480;-68
2022/12/09 03:37:35;;;;;;;66.78;33.95;;;;;;;3.35;100.00;100540.91;5174983;28;20046;-68
2022/12/09 03:40:07;;;;;;;;;;;;;;;3.92;100.00;100534.03;5176816;28;20027;-68
2022/12/09 03:42:45;;;;;;;61.28;33.55;;;;;;;3.48;100.00;100528.03;5177593;28;19936;-68
2022/12/09 03:45:18;;;;;;;72.30;34.88;;;;;;;3.36;100.00;100527.00;5177439;28;20137;-68
2022/12/09 03:47:50;;;;;;;;;;;;;;;3.88;100.00;100534.22;5175581;28;20029;-68
2022/12/09 03:50:25;;;;;;;58.20;33.42;;;;;;;3.39;100.00;100532.03;5176308;28;19918;-68
2022/12/09 03:53:13;;;;;;;60.10;33.40;;;;;;;3.48;100.00;100524.63;5176498;28;20034;-68
2022/12/09 03:56:21;;;;;;;52.45;34.50;;;;;;;3.60;100.00;100532.50;5177324;28;20559;-68
2022/12/09 03:58:56;;;;;;;62.03;34.78;;;;;;;3.28;100.00;100536.16;5174965;28;20037;-68
2022/12/09 04:01:30;;;;;;;68.22;35.03;;;;;;;3.28;100.00;100534.41;5176277;28;20484;-69
2022/12/09 04:04:01;;;;;;;62.00;34.33;;;;;;;3.27;100.00;100539.69;5159717;28;20543;-68
2022/12/09 04:06:33;;;;;;;48.40;32.97;;;;;;;3.28;100.00;100531.00;5156759;28;20039;-68
2022/12/09 04:09:05;;;;;;;54.17;35.30;;;;;;;3.30;100.00;100537.75;5177020;28;20022;-68
2022/12/09 04:11:36;;;;;;;58.72;34.92;;;;;;;3.29;100.00;100524.88;5176476;28;20450;-68
2022/12/09 04:14:08;;;;;;;59.60;35.83;;;;;;;3.31;100.00;100530.81;5158004;28;20065;-68
2022/12/09 04:16:39;;;;;;;50.40;33.47;;;;;;;3.33;100.00;100534.13;5174814;28;20042;-68
2022/12/09 04:19:11;;;;;;;49.58;33.63;;;;;;;3.31;100.00;100517.88;5171828;28;20485;-68
2022/12/09 04:21:42;;;;;;;58.17;33.85;;;;;;;3.31;100.00;100525.63;5175676;28;20447;-68
2022/12/09 04:24:14;;;;;;;57.08;32.28;;;;;;;3.34;100.00;100531.47;5176570;28;20053;-68
2022/12/09 04:26:45;;;;;;;57.63;34.03;;;;;;;3.33;100.00;100521.19;5175694;28;20035;-68
2022/12/09 04:29:16;;;;;;;49.80;31.73;;;;;;;3.34;100.00;100528.88;5175362;28;20392;-68
2022/12/09 04:31:47;;;;;;;54.65;33.92;;;;;;;3.34;100.00;100523.69;5175675;28;20445;-68
2022/12/09 04:34:19;;;;;;;51.88;31.92;;;;;;;3.35;100.00;100525.34;5173845;28;20030;-68
2022/12/09 04:36:50;;;;;;;51.05;33.45;;;;;;;3.32;100.00;100519.53;5175111;28;20089;-68
2022/12/09 04:39:21;;;;;;;51.88;33.40;;;;;;;3.31;100.00;100517.88;5176754;28;20038;-68
2022/12/09 04:41:52;;;;;;;45.13;31.08;;;;;;;3.34;100.00;100522.88;5173866;28;20373;-68
2022/12/09 04:44:24;;;;;;;51.45;33.67;;;;;;;3.34;100.00;100517.69;5176091;28;20042;-68
2022/12/09 04:46:55;;;;;;;47.38;32.97;;;;;;;3.30;100.00;100519.63;5175033;28;20055;-68
2022/12/09 04:49:26;;;;;;;51.83;33.75;;;;;;;3.31;100.00;100521.28;5176140;28;20590;-68
2022/12/09 04:51:57;;;;;;;44.95;32.25;;;;;;;3.28;100.00;100502.50;5173812;28;20122;-68
2022/12/09 04:54:29;;;;;;;51.65;32.72;;;;;;;3.33;100.00;100521.19;5175904;28;20395;-68
2022/12/09 04:57:00;;;;;;;50.53;34.03;;;;;;;3.33;100.00;100527.22;5175962;28;20030;-68
2022/12/09 04:59:31;;;;;;;46.63;33.75;;;;;;;3.33;100.00;100516.88;5175642;28;20436;-68
2022/12/09 05:02:03;;;;;;;55.15;35.28;;;;;;;3.35;100.00;100521.94;5174768;28;20031;-68
2022/12/09 05:04:34;;;;;;;53.10;34.22;;;;;;;3.33;100.00;100526.38;5175472;28;20197;-68
2022/12/09 05:07:05;;;;;;;52.75;34.78;;;;;;;3.32;100.00;100520.34;5174884;28;20480;-68
2022/12/09 05:09:37;;;;;;;53.42;34.00;;;;;;;3.35;100.00;100524.53;5173229;28;20066;-68
2022/12/09 05:12:08;;;;;;;51.13;35.65;;;;;;;3.38;100.00;100521.75;5175014;28;20528;-68
2022/12/09 05:14:40;;;;;;;49.80;33.97;;;;;;;3.37;100.00;100523.53;5175407;28;20027;-69
2022/12/09 05:17:11;;;;;;;54.70;36.10;;;;;;;3.38;100.00;100529.53;5174817;28;20023;-68
2022/12/09 05:19:42;;;;;;;48.03;34.15;;;;;;;3.40;100.00;100527.66;5169951;28;20026;-68
2022/12/09 05:22:17;;;;;;;53.75;35.22;;;;;;;3.43;100.00;100522.31;5174119;28;20023;-68
2022/12/09 05:24:48;;;;;;;49.22;33.75;;;;;;;3.40;100.00;100525.91;5175595;28;20038;-68
2022/12/09 05:27:20;;;;;;;50.88;35.58;;;;;;;3.41;100.00;100519.81;5173364;28;20026;-69
2022/12/09 05:29:51;;;;;;;51.38;34.63;;;;;;;3.32;100.00;100511.75;5156941;28;20038;-68
2022/12/09 05:32:22;;;;;;;53.08;34.22;;;;;;;3.37;100.00;100522.66;5175131;28;20094;-69
2022/12/09 05:34:54;;;;;;;46.72;33.58;;;;;;;3.37;100.00;100520.94;5172364;28;20403;-69
2022/12/09 05:37:25;;;;;;;54.88;36.10;;;;;;;3.28;100.00;100513.69;5157081;28;20034;-68
2022/12/09 05:39:56;;;;;;;51.05;36.17;;;;;;;3.40;100.00;100525.06;5174999;28;20022;-68
2022/12/09 05:42:27;;;;;;;51.60;33.75;;;;;;;3.42;100.00;100528.41;5173174;28;20042;-68
2022/12/09 05:44:59;;;;;;;56.15;35.63;;;;;;;3.38;100.00;100519.16;5174603;28;20062;-68
2022/12/09 05:47:30;;;;;;;52.85;35.58;;;;;;;3.36;100.00;100521.84;5174687;28;20042;-69
2022/12/09 05:50:03;;;;;;;58.80;35.92;;;;;;;3.34;100.00;100531.47;5173628;28;20551;-68
2022/12/09 05:52:35;;;;;;;53.35;35.80;;;;;;;3.37;100.00;100527.84;5171992;28;20480;-68
2022/12/09 05:55:08;;;;;;;57.10;34.92;;;;;;;3.36;100.00;100515.84;5156976;28;20031;-68
2022/12/09 05:57:39;;;;;;;51.45;34.22;;;;;;;3.33;100.00;100513.41;5174425;28;20039;-69
2022/12/09 06:00:11;;;;;;;52.83;34.15;;;;;;;3.33;100.00;100521.19;5172276;28;20033;-68
2022/12/09 06:02:42;;;;;;;47.92;34.13;;;;;;;3.29;100.00;100514.53;5174397;28;20523;-68
2022/12/09 06:05:14;;;;;;;49.03;33.92;;;;;;;3.31;100.00;100523.06;5174698;28;20019;-69
2022/12/09 06:07:45;;;;;;;51.30;33.47;;;;;;;3.37;100.00;100517.47;5170737;28;20058;-68
2022/12/09 06:10:16;;;;;;;48.60;33.40;;;;;;;3.33;100.00;100522.03;5174108;28;20031;-68
2022/12/09 06:12:48;;;;;;;47.92;32.47;;;;;;;3.33;100.00;100516.00;5174337;28;20433;-68
2022/12/09 06:15:19;;;;;;;47.72;33.97;;;;;;;3.34;100.00;100520.28;5173278;28;20030;-68
2022/12/09 06:17:50;;;;;;;52.17;34.40;;;;;;;3.34;100.00;100517.69;5173259;28;20022;-68
2022/12/09 06:20:21;;;;;;;47.05;33.08;;;;;;;3.34;100.00;100508.16;5172218;28;20109;-68
2022/12/09 06:22:53;;;;;;;50.35;33.95;;;;;;;3.31;100.00;100502.34;5173442;28;20476;-68
2022/12/09 06:25:24;;;;;;;49.33;33.45;;;;;;;3.34;100.00;100515.94;5174440;28;20684;-68
2022/12/09 06:27:55;;;;;;;54.35;34.22;;;;;;;3.38;100.00;100516.59;5171931;28;20472;-68
2022/12/09 06:30:27;;;;;;;46.72;32.00;;;;;;;3.37;100.00;100520.94;5173575;28;20023;-69
2022/12/09 06:32:58;;;;;;;52.70;34.50;;;;;;;3.36;100.00;100513.25;5174250;28;20093;-68
2022/12/09 06:35:30;;;;;;;44.67;33.42;;;;;;;3.35;100.00;100516.75;5171594;28;20035;-68
2022/12/09 06:38:01;;;;;;;49.30;33.90;;;;;;;3.34;100.00;100518.53;5155832;28;20105;-69
2022/12/09 06:40:32;;;;;;;44.03;32.30;;;;;;;3.33;100.00;100519.47;5173968;28;20026;-68
2022/12/09 06:43:04;;;;;;;47.58;33.50;;;;;;;3.32;100.00;100514.34;5174037;28;20034;-68
2022/12/09 06:45:36;;;;;;;46.28;33.28;;;;;;;3.30;100.00;100514.47;5171276;28;20085;-68
2022/12/09 06:48:08;;;;;;;47.50;32.35;;;;;;;3.32;100.00;100511.75;5173061;28;20031;-68
2022/12/09 06:50:40;;;;;;;47.10;32.95;;;;;;;3.35;100.00;100504.66;5173177;28;20681;-68
2022/12/09 06:53:11;;;;;;;43.10;32.63;;;;;;;3.33;100.00;100511.69;5168300;28;20034;-69
2022/12/09 06:55:43;;;;;;;50.20;33.55;;;;;;;3.30;100.00;100513.63;5172011;28;20121;-67
2022/12/09 06:58:14;;;;;;;47.20;32.88;;;;;;;3.31;100.00;100516.13;5174226;28;20586;-68
2022/12/09 07:00:46;;;;;;;48.63;32.53;;;;;;;3.32;100.00;100504.81;5169179;28;20015;-68
2022/12/09 07:03:17;;;;;;;47.50;33.33;;;;;;;3.35;100.00;100516.75;5171338;28;20053;-68
2022/12/09 07:05:48;;;;;;;45.70;32.08;;;;;;;3.33;100.00;100516.88;5169912;28;20046;-68
2022/12/09 07:08:20;;;;;;;48.13;34.05;;;;;;;3.31;100.00;100517.88;5169611;28;20038;-69
2022/12/09 07:10:51;;;;;;;47.25;32.58;;;;;;;3.33;100.00;100513.41;5172379;28;20022;-68
2022/12/09 07:13:22;;;;;;;47.03;33.67;;;;;;;3.31;100.00;100525.63;5173301;28;20054;-68
2022/12/09 07:15:53;;;;;;;44.42;32.90;;;;;;;3.31;100.00;100520.47;5176820;28;20035;-68
2022/12/09 07:18:25;;;;;;;47.65;32.42;;;;;;;3.30;100.00;100518.81;5175077;28;20121;-68
2022/12/09 07:20:56;;;;;;;43.80;31.45;;;;;;;3.32;100.00;100524.72;5172604;28;20027;-69
2022/12/09 07:23:27;;;;;;;42.05;31.13;;;;;;;3.35;100.00;100527.13;5174186;28;20043;-68
2022/12/09 07:26:01;;;;;;;46.67;30.88;;;;;;;3.36;100.00;100531.38;5175076;28;20030;-68
2022/12/09 07:28:33;;;;;;;;;;;;;;;3.90;100.00;100534.97;5176007;28;20034;-68
2022/12/09 07:31:05;;;;;;;45.75;31.77;;;;;;;3.44;100.00;100536.91;5156199;28;19918;-68
2022/12/09 07:33:36;;;;;;;46.58;32.22;;;;;;;3.38;100.00;100534.72;5171302;28;20499;-68
2022/12/09 07:36:07;;;;;;;46.33;32.95;;;;;;;3.39;100.00;100537.19;5170680;28;20034;-68
2022/12/09 07:38:38;;;;;;;47.55;33.25;;;;;;;3.41;100.00;100539.72;5167890;28;20027;-68
2022/12/09 07:41:16;;;;;;;44.17;32.35;;;;;;;3.40;100.00;100544.03;5169068;28;20046;-68
2022/12/09 07:43:48;;;;;;;45.53;33.83;;;;;;;3.42;100.00;100546.53;5171904;28;20034;-69
2022/12/09 07:46:21;;;;;;;46.17;32.78;;;;;;;3.38;100.00;100547.66;5165580;28;20038;-68
2022/12/09 07:48:53;;;;;;;42.92;32.90;;;;;;;3.37;100.00;100548.56;5169583;28;20050;-68
2022/12/09 07:51:24;;;;;;;43.25;32.88;;;;;;;3.33;100.00;100557.44;5170786;28;20065;-68
2022/12/09 07:53:56;;;;;;;48.22;34.60;;;;;;;3.37;100.00;100553.72;5163350;28;20158;-68
2022/12/09 07:56:27;;;;;;;44.60;33.17;;;;;;;3.33;100.00;100557.44;5163299;28;20039;-68
2022/12/09 07:58:59;;;;;;;40.13;32.42;;;;;;;3.35;100.00;100556.44;5172163;28;20452;-68
2022/12/09 08:01:30;;;;;;;44.58;33.05;;;;;;;3.35;100.00;100556.44;5169504;28;20026;-68
2022/12/09 08:04:04;;;;;;;45.08;33.45;;;;;;;3.40;100.00;100554.38;5169268;28;20489;-68
2022/12/09 08:06:36;;;;;;;42.30;32.05;;;;;;;3.29;100.00;100549.00;5171166;28;20126;-68
2022/12/09 08:09:11;;;;;;;43.25;31.80;;;;;;;3.32;100.00;100560.97;5171943;28;20023;-68
2022/12/09 08:11:42;;;;;;;39.28;30.67;;;;;;;3.28;100.00;100555.13;5170183;28;20035;-70
2022/12/09 08:14:13;;;;;;;43.65;32.25;;;;;;;3.31;100.00;100556.72;5152423;28;20026;-70
2022/12/09 08:16:45;;;;;;;42.70;31.98;;;;;;;3.30;100.00;100557.66;5170116;28;20535;-70
2022/12/09 08:19:16;;;;;;;43.10;31.80;;;;;;;3.26;100.00;100543.19;5167953;28;20042;-70
2022/12/09 08:21:47;;;;;;;45.45;33.00;;;;;;;3.29;100.00;100551.59;5171200;28;20023;-70
2022/12/09 08:24:19;;;;;;;47.97;36.38;;;;;;;3.30;100.00;100545.53;5171963;28;20035;-68
2022/12/09 08:26:50;;;;;;;45.15;32.97;;;;;;;3.36;100.00;100555.50;5170545;28;20081;-68
2022/12/09 08:29:21;;;;;;;55.72;35.28;;;;;;;3.35;100.00;100556.44;5168405;28;20499;-68
2022/12/09 08:31:53;;;;;;;45.22;32.28;;;;;;;3.31;100.00;100546.34;5169608;28;20038;-68
2022/12/09 08:34:24;;;;;;;41.65;31.90;;;;;;;3.33;100.00;100555.72;5170883;28;20468;-70
2022/12/09 08:36:55;;;;;;;43.45;29.77;;;;;;;3.36;100.00;100550.31;5170950;28;20377;-69
2022/12/09 08:39:27;;;;;;;38.85;29.98;;;;;;;3.38;100.00;100551.06;5170542;28;20442;-69
2022/12/09 08:41:58;;;;;;;42.70;31.30;;;;;;;3.42;100.00;100551.72;5154179;28;20543;-69
2022/12/09 08:44:29;;;;;;;42.13;30.75;;;;;;;3.38;100.00;100553.66;5170100;28;20035;-69
2022/12/09 08:47:01;;;;;;;43.50;32.63;;;;;;;3.37;100.00;100548.56;5164655;28;20059;-69
2022/12/09 08:49:32;;;;;;;41.80;31.23;;;;;;;3.41;100.00;100552.66;5167623;28;20049;-69
2022/12/09 08:52:03;;;;;;;41.42;30.95;;;;;;;3.42;100.00;100549.97;5169397;28;20405;-69
2022/12/09 08:54:35;;;;;;;46.67;31.02;;;;;;;3.39;100.00;100550.16;5169800;28;20473;-69
2022/12/09 08:57:06;;;;;;;41.42;31.85;;;;;;;3.42;100.00;100549.13;5166555;28;20026;-69
2022/12/09 08:59:37;;;;;;;42.10;31.00;;;;;;;3.45;100.00;100551.56;5168408;28;20114;-69
2022/12/09 09:02:09;;;;;;;46.00;32.08;;;;;;;3.45;100.00;100548.97;5168211;28;20023;-69
2022/12/09 09:04:40;;;;;;;49.38;32.78;;;;;;;3.37;100.00;100551.16;5164110;28;20037;-69
2022/12/09 09:07:12;;;;;;;45.60;33.15;;;;;;;3.29;100.00;100546.41;5169087;28;20031;-69
2022/12/09 09:09:44;;;;;;;44.33;31.95;;;;;;;3.31;100.00;100557.53;5152845;28;20023;-69
2022/12/09 09:12:15;;;;;;;42.03;30.42;;;;;;;3.25;100.00;100559.66;5166049;28;20770;-69
2022/12/09 09:14:46;;;;;;;39.55;30.38;;;;;;;3.25;100.00;100563.06;5168731;28;20065;-69
2022/12/09 09:17:18;;;;;;;41.75;31.27;;;;;;;3.24;100.00;100561.41;5167569;28;20054;-69
2022/12/09 09:19:49;;;;;;;41.72;32.03;;;;;;;3.30;100.00;100566.25;5165921;28;20090;-69
2022/12/09 09:22:20;;;;;;;50.85;32.80;;;;;;;3.35;100.00;100571.97;5169379;28;20444;-69
2022/12/09 09:24:53;;;;;;;42.45;31.38;;;;;;;3.37;100.00;100575.31;5170895;28;20058;-68
2022/12/09 09:27:24;;;;;;;46.38;33.20;;;;;;;3.42;100.00;100573.28;5169520;28;20098;-68
2022/12/09 09:29:55;;;;;;;42.08;31.30;;;;;;;3.40;100.00;100575.09;5167700;28;20035;-68
2022/12/09 09:32:26;;;;;;;43.15;31.05;;;;;;;3.39;100.00;100570.84;5165679;28;20122;-68
2022/12/09 09:34:58;;;;;;;50.50;34.05;;;;;;;3.44;100.00;100569.75;5170217;28;20034;-68
2022/12/09 09:37:30;;;;;;;45.47;31.50;;;;;;;3.50;100.00;100564.22;5171057;28;20480;-70
2022/12/09 09:40:01;;;;;;;49.15;34.55;;;;;;;3.57;100.00;100574.13;5171201;28;20488;-68
2022/12/09 09:42:42;;;;;;;48.38;33.50;;;;;;;3.61;100.00;100570.41;5169951;28;20567;-68
2022/12/09 09:45:18;;;;;;;47.15;33.17;;;;;;;3.68;100.00;100567.47;5170355;28;20022;-69
2022/12/09 09:48:01;;;;;;;43.75;31.10;;;;;;;3.83;100.00;100571.72;5167400;28;20047;-68
2022/12/09 09:50:54;;;;;;;45.00;31.38;;;;;;;3.95;100.00;100559.75;5168757;28;20069;-68
2022/12/09 09:53:32;;;;;;;41.95;30.55;;;;;;;3.85;100.00;100564.66;5170950;28;20037;-68
2022/12/09 09:56:15;;;;;;;40.40;27.83;;;;;;;3.80;100.00;100561.53;5165263;28;20525;-68
2022/12/09 09:59:01;;;;;;;39.78;26.25;;;;;;;3.96;100.00;100562.25;5169234;28;20122;-68
2022/12/09 10:01:35;;;;;;;28.45;22.33;;;;;;;3.88;100.00;100561.88;5169451;28;20452;-68
2022/12/09 10:04:21;;;;;;;28.08;18.80;;;;;;;3.90;100.00;100560.88;5163517;28;20115;-68
2022/12/09 10:07:14;;;;;;;18.63;13.48;;;;;;;3.96;100.00;100558.81;5166107;28;20034;-69
2022/12/09 10:10:02;;;;;;;14.75;11.52;;;;;;;3.84;100.00;100558.66;5169169;28;20100;-68
2022/12/09 10:12:56;;;;;;;15.25;12.52;;;;;;;3.79;100.00;100559.84;5169910;28;20134;-68
2022/12/09 10:15:32;;;;;;;19.40;13.93;;;;;;;3.62;100.00;100569.47;5163889;28;20481;-68
2022/12/09 10:18:24;;;;;;;23.83;16.95;;;;;;;3.77;100.00;100561.72;5169018;28;20031;-68
2022/12/09 10:20:55;;;;;;;26.75;19.23;;;;;;;3.63;100.00;100558.19;5164843;28;20970;-68
2022/12/09 10:23:31;;;;;;;27.70;19.38;;;;;;;3.69;100.00;100562.19;5169271;28;20035;-68
2022/12/09 10:26:05;;;;;;;23.23;18.50;;;;;;;3.71;100.00;100556.91;5167239;28;20030;-69
2022/12/09 10:28:40;;;;;;;23.60;18.60;;;;;;;3.83;100.00;100556.16;5167725;28;20030;-68
2022/12/09 10:31:12;;;;;;;24.85;18.00;;;;;;;3.77;100.00;100562.53;5169863;28;20113;-69
2022/12/09 10:33:43;;;;;;;21.75;18.35;;;;;;;3.85;100.00;100556.91;5162998;28;20035;-68
2022/12/09 10:36:27;;;;;;;23.58;17.75;;;;;;;4.04;100.00;100552.22;5170497;28;20137;-68
2022/12/09 10:38:59;;;;;;;22.90;17.70;;;;;;;3.96;100.00;100558.81;5168265;28;20496;-68
2022/12/09 10:44:47;;;;;;;22.88;18.73;;;;;;;4.04;100.00;100549.63;5169094;28;20055;-68
2022/12/09 10:47:27;;;;;;;26.95;20.50;;;;;;;4.20;100.00;100557.28;5170658;28;20030;-68
2022/12/09 10:49:59;;;;;;;27.90;20.77;;;;;;;4.11;100.00;100561.28;5168261;28;20057;-69
2022/12/09 10:52:42;;;;;;;28.15;18.13;;;;;;;4.25;100.00;100555.25;5166735;28;20031;-68
2022/12/09 10:55:23;;;;;;;24.23;17.85;;;;;;;4.20;100.00;100548.69;5165758;28;20019;-68
2022/12/09 10:58:16;;;;;;;25.35;16.63;;;;;;;4.30;100.00;100552.38;5169888;28;20034;-68
2022/12/09 11:01:04;;;;;;;23.27;16.90;;;;;;;4.20;100.00;100548.69;5166285;28;20034;-71
2022/12/09 11:03:40;;;;;;;22.60;17.17;;;;;;;4.06;100.00;100546.97;5167862;28;20297;-68
2022/12/09 11:06:27;;;;;;;24.08;16.88;;;;;;;4.15;100.00;100549.81;5167568;28;20035;-70
2022/12/09 11:09:02;;;;;;;26.67;17.17;;;;;;;4.01;100.00;100555.00;5156302;28;20058;-71
2022/12/09 11:11:45;;;;;;;25.77;18.10;;;;;;;4.06;100.00;100540.03;5165540;28;20030;-70
2022/12/09 11:14:21;;;;;;;24.92;18.35;;;;;;;4.01;100.00;100555.00;5167691;28;20022;-70
2022/12/09 11:17:09;;;;;;;24.45;18.27;;;;;;;4.17;100.00;100548.88;5165559;28;20070;-70
2022/12/09 11:19:41;;;;;;;26.95;19.40;;;;;;;4.08;100.00;100545.94;5168140;28;20570;-70
2022/12/09 11:22:30;;;;;;;29.30;19.93;;;;;;;4.05;100.00;100553.91;5168108;28;20031;-70
2022/12/09 11:25:11;;;;;;;27.77;19.08;;;;;;;4.18;100.00;100547.97;5167169;28;20176;-70
2022/12/09 11:27:56;;;;;;;30.05;20.35;;;;;;;4.12;100.00;100554.34;5169364;28;20038;-70
2022/12/09 11:30:35;;;;;;;28.00;18.17;;;;;;;4.04;100.00;100543.63;5169332;28;20027;-70
2022/12/09 11:33:33;;;;;;;30.13;18.20;;;;;;;4.20;100.00;100548.69;5166896;28;20481;-70
2022/12/09 11:36:30;;;;;;;25.38;16.80;;;;;;;4.20;100.00;100544.31;5169432;28;20070;-70
2022/12/09 11:39:25;;;;;;;27.05;16.95;;;;;;;4.17;100.00;100547.13;5167948;28;20109;-70
2022/12/09 11:42:17;;;;;;;30.20;20.17;;;;;;;4.13;100.00;100554.28;5165714;28;20031;-70
2022/12/09 11:44:58;;;;;;;27.67;18.35;;;;;;;4.02;100.00;100541.16;5166512;28;20590;-70
2022/12/09 11:47:36;;;;;;;26.42;18.52;;;;;;;4.00;100.00;100537.81;5166961;28;20049;-70